createdAt,value
2022-10-29T00:02:16.508Z,11.22
2022-10-29T00:04:42.814Z,11.18
2022-10-29T00:07:09.113Z,11.16
2022-10-29T00:09:35.557Z,11.17
2022-10-29T00:12:01.907Z,11.15
2022-10-29T00:14:28.458Z,11.01
2022-10-29T00:16:57.202Z,10.98
2022-10-29T00:19:23.611Z,10.92
2022-10-29T00:21:51.041Z,10.91
2022-10-29T00:24:17.637Z,10.94
2022-10-29T00:26:44.034Z,10.99
2022-10-29T00:29:10.369Z,11.01
2022-10-29T00:31:36.795Z,10.99
2022-10-29T00:34:03.182Z,10.98
2022-10-29T00:36:30.271Z,11.01
2022-10-29T00:38:57.047Z,11.06
2022-10-29T00:41:26.839Z,11.08
2022-10-29T00:44:18.806Z,11.09
2022-10-29T00:46:49.877Z,11.07
2022-10-29T00:49:17.409Z,10.94
2022-10-29T00:51:45.844Z,10.79
2022-10-29T00:54:15.006Z,10.73
2022-10-29T00:57:06.603Z,10.75
2022-10-29T00:59:33.154Z,10.79
2022-10-29T01:01:59.518Z,10.80
2022-10-29T01:04:26.122Z,10.82
2022-10-29T01:06:53.183Z,10.79
2022-10-29T01:09:19.500Z,10.68
2022-10-29T01:12:01.033Z,10.59
2022-10-29T01:15:03.745Z,10.60
2022-10-29T01:17:33.005Z,10.62
2022-10-29T01:20:23.124Z,10.64
2022-10-29T01:23:20.222Z,10.63
2022-10-29T01:26:07.874Z,10.60
2022-10-29T01:29:01.445Z,10.60
2022-10-29T01:31:37.860Z,10.57
2022-10-29T01:34:13.383Z,10.58
2022-10-29T01:37:01.299Z,10.55
2022-10-29T01:39:53.196Z,10.47
2022-10-29T01:42:26.680Z,10.46
2022-10-29T01:45:08.553Z,10.45
2022-10-29T01:47:44.042Z,10.29
2022-10-29T01:50:15.266Z,10.24
2022-10-29T01:52:42.930Z,10.23
2022-10-29T01:55:09.449Z,10.22
2022-10-29T01:57:39.817Z,10.18
2022-10-29T02:00:06.438Z,10.14
2022-10-29T02:03:14.798Z,10.11
2022-10-29T02:06:09.798Z,10.14
2022-10-29T02:08:52.824Z,10.18
2022-10-29T02:11:29.689Z,10.19
2022-10-29T02:14:05.934Z,10.20
2022-10-29T02:16:33.465Z,10.25
2022-10-29T02:19:00.397Z,10.28
2022-10-29T02:21:26.833Z,10.29
2022-10-29T02:23:53.146Z,10.30
2022-10-29T02:26:19.522Z,10.30
2022-10-29T02:28:46.008Z,10.30
2022-10-29T02:31:12.407Z,10.33
2022-10-29T02:33:38.725Z,10.36
2022-10-29T02:36:05.385Z,10.36
2022-10-29T02:38:31.703Z,10.36
2022-10-29T02:40:58.005Z,10.31
2022-10-29T02:43:24.358Z,10.26
2022-10-29T02:45:50.901Z,10.23
2022-10-29T02:48:17.221Z,10.22
2022-10-29T02:50:43.646Z,10.28
2022-10-29T02:53:09.949Z,10.32
2022-10-29T02:55:36.289Z,10.40
2022-10-29T02:58:02.625Z,10.47
2022-10-29T03:00:28.923Z,10.51
2022-10-29T03:02:55.681Z,10.51
2022-10-29T03:05:22.391Z,10.52
2022-10-29T03:07:48.707Z,10.49
2022-10-29T03:10:15.111Z,10.43
2022-10-29T03:12:41.444Z,10.42
2022-10-29T03:15:08.268Z,10.43
2022-10-29T03:17:34.572Z,10.45
2022-10-29T03:20:00.994Z,10.48
2022-10-29T03:22:27.309Z,10.53
2022-10-29T03:24:53.597Z,10.59
2022-10-29T03:27:20.017Z,10.62
2022-10-29T03:29:46.313Z,10.64
2022-10-29T03:32:12.617Z,10.67
2022-10-29T03:34:38.975Z,10.70
2022-10-29T03:37:05.319Z,10.71
2022-10-29T03:39:31.629Z,10.72
2022-10-29T03:41:57.962Z,10.71
2022-10-29T03:44:24.282Z,10.70
2022-10-29T03:46:50.584Z,10.73
2022-10-29T03:49:16.942Z,10.73
2022-10-29T03:51:43.245Z,10.75
2022-10-29T03:54:09.537Z,10.76
2022-10-29T03:56:35.857Z,10.79
2022-10-29T03:59:02.195Z,10.83
2022-10-29T04:01:28.630Z,10.89
2022-10-29T04:03:55.074Z,10.93
2022-10-29T04:06:21.378Z,10.94
2022-10-29T04:08:47.679Z,10.97
2022-10-29T04:11:14.268Z,10.98
2022-10-29T04:13:40.812Z,10.98
2022-10-29T04:16:07.385Z,10.97
2022-10-29T04:18:34.090Z,10.99
2022-10-29T04:29:24.297Z,10.90
2022-10-29T04:31:50.831Z,10.92
2022-10-29T04:34:17.289Z,10.92
2022-10-29T04:36:43.672Z,10.93
2022-10-29T04:39:10.062Z,10.95
2022-10-29T04:41:36.389Z,10.95
2022-10-29T04:44:02.759Z,10.94
2022-10-29T04:46:29.225Z,10.94
2022-10-29T04:48:55.570Z,10.93
2022-10-29T04:51:24.230Z,10.90
2022-10-29T04:53:50.718Z,10.87
2022-10-29T04:56:17.503Z,10.83
2022-10-29T04:58:43.872Z,10.85
2022-10-29T05:01:10.289Z,10.85
2022-10-29T05:03:36.673Z,10.83
2022-10-29T05:06:05.035Z,10.82
2022-10-29T05:08:31.643Z,10.79
2022-10-29T05:10:57.939Z,10.78
2022-10-29T05:13:24.249Z,10.74
2022-10-29T05:15:53.334Z,10.72
2022-10-29T05:18:20.082Z,10.74
2022-10-29T05:20:46.472Z,10.77
2022-10-29T05:23:12.822Z,10.79
2022-10-29T05:25:40.607Z,10.80
2022-10-29T05:28:11.541Z,10.81
2022-10-29T05:30:38.292Z,10.83
2022-10-29T05:33:12.032Z,10.85
2022-10-29T05:35:38.496Z,10.90
2022-10-29T05:38:05.463Z,10.92
2022-10-29T05:40:31.950Z,10.94
2022-10-29T05:42:59.231Z,10.95
2022-10-29T05:45:25.799Z,10.97
2022-10-29T05:47:57.345Z,10.95
2022-10-29T05:50:24.122Z,10.96
2022-10-29T05:52:57.612Z,10.98
2022-10-29T05:55:25.094Z,10.99
2022-10-29T05:58:05.735Z,11.02
2022-10-29T06:00:35.134Z,11.05
2022-10-29T06:03:01.880Z,11.08
2022-10-29T06:05:28.687Z,11.08
2022-10-29T06:07:56.751Z,11.10
2022-10-29T06:10:25.226Z,11.10
2022-10-29T06:12:51.775Z,11.10
2022-10-29T06:15:18.806Z,11.10
2022-10-29T06:17:46.226Z,11.13
2022-10-29T06:20:16.739Z,11.13
2022-10-29T06:22:43.218Z,11.17
2022-10-29T06:25:10.039Z,11.18
2022-10-29T06:27:37.072Z,11.22
2022-10-29T06:30:05.156Z,11.24
2022-10-29T06:32:31.681Z,11.27
2022-10-29T06:34:58.129Z,11.29
2022-10-29T06:37:24.457Z,11.29
2022-10-29T06:39:50.829Z,11.29
2022-10-29T06:42:17.276Z,11.31
2022-10-29T06:44:43.614Z,11.32
2022-10-29T06:47:09.978Z,11.34
2022-10-29T06:49:36.403Z,11.36
2022-10-29T06:52:02.770Z,11.40
2022-10-29T06:54:29.093Z,11.44
2022-10-29T06:56:55.603Z,11.46
2022-10-29T06:59:23.430Z,11.48
2022-10-29T07:01:49.984Z,11.51
2022-10-29T07:04:18.308Z,11.54
2022-10-29T07:06:44.650Z,11.57
2022-10-29T07:09:11.133Z,11.63
2022-10-29T07:11:37.525Z,11.67
2022-10-29T07:14:05.849Z,11.72
2022-10-29T07:16:32.215Z,11.74
2022-10-29T07:18:58.575Z,11.78
2022-10-29T07:21:24.917Z,11.82
2022-10-29T07:23:51.248Z,11.86
2022-10-29T07:26:17.555Z,11.91
2022-10-29T07:28:43.870Z,11.95
2022-10-29T07:31:10.206Z,12.01
2022-10-29T07:33:36.501Z,12.06
2022-10-29T07:36:02.919Z,12.12
2022-10-29T07:38:29.230Z,12.20
2022-10-29T07:40:55.592Z,12.28
2022-10-29T07:43:22.491Z,12.40
2022-10-29T07:45:50.536Z,12.54
2022-10-29T07:48:18.242Z,12.69
2022-10-29T07:50:44.685Z,12.85
2022-10-29T07:53:11.219Z,12.99
2022-10-29T07:55:37.892Z,13.05
2022-10-29T07:58:07.642Z,13.11
2022-10-29T08:00:36.621Z,13.20
2022-10-29T08:03:03.916Z,13.32
2022-10-29T08:05:30.865Z,13.45
2022-10-29T08:07:58.115Z,13.62
2022-10-29T08:10:25.325Z,13.83
2022-10-29T08:12:53.904Z,13.99
2022-10-29T08:15:20.576Z,14.16
2022-10-29T08:17:46.992Z,14.29
2022-10-29T08:20:14.789Z,14.41
2022-10-29T08:22:41.311Z,14.56
2022-10-29T08:25:08.287Z,14.73
2022-10-29T08:27:34.803Z,14.89
2022-10-29T08:30:01.394Z,15.05
2022-10-29T08:32:27.701Z,15.18
2022-10-29T08:34:54.164Z,15.33
2022-10-29T08:37:20.457Z,15.59
2022-10-29T08:39:46.770Z,16.19
2022-10-29T08:42:34.555Z,17.13
2022-10-29T08:45:14.672Z,17.67
2022-10-29T08:47:59.867Z,18.63
2022-10-29T08:50:33.212Z,19.11
2022-10-29T08:55:48.277Z,19.24
2022-10-29T08:58:27.790Z,19.56
2022-10-29T09:00:57.849Z,19.08
2022-10-29T09:03:26.695Z,18.59
2022-10-29T09:06:07.971Z,18.33
2022-10-29T09:08:43.538Z,18.06
2022-10-29T09:11:46.075Z,17.87
2022-10-29T09:14:40.778Z,17.73
2022-10-29T09:17:29.575Z,17.60
2022-10-29T09:20:17.131Z,17.45
2022-10-29T09:23:05.025Z,17.39
2022-10-29T09:25:38.423Z,17.32
2022-10-29T09:28:42.748Z,17.29
2022-10-29T09:31:37.513Z,17.26
2022-10-29T09:34:12.092Z,17.22
2022-10-29T09:36:39.437Z,17.19
2022-10-29T09:39:37.397Z,17.18
2022-10-29T09:42:10.862Z,17.17
2022-10-29T09:44:53.125Z,17.14
2022-10-29T09:47:37.415Z,17.15
2022-10-29T09:50:30.485Z,17.14
2022-10-29T09:52:57.078Z,17.14
2022-10-29T09:55:27.771Z,17.13
2022-10-29T09:57:57.062Z,17.13
2022-10-29T10:00:26.774Z,17.13
2022-10-29T10:03:00.794Z,17.11
2022-10-29T10:05:30.361Z,17.10
2022-10-29T10:08:14.342Z,17.07
2022-10-29T10:11:07.067Z,17.06
2022-10-29T10:13:50.108Z,17.06
2022-10-29T10:16:24.005Z,17.08
2022-10-29T10:18:50.388Z,17.10
2022-10-29T10:21:27.982Z,17.12
2022-10-29T10:23:57.512Z,17.17
2022-10-29T10:26:44.552Z,17.28
2022-10-29T10:29:11.849Z,17.39
2022-10-29T10:31:39.614Z,17.52
2022-10-29T10:34:19.104Z,17.62
2022-10-29T10:37:05.051Z,17.69
2022-10-29T10:39:36.703Z,17.76
2022-10-29T10:42:16.892Z,17.84
2022-10-29T10:44:48.162Z,17.95
2022-10-29T10:47:18.957Z,18.01
2022-10-29T10:49:45.786Z,18.06
2022-10-29T10:52:28.516Z,18.11
2022-10-29T10:54:59.493Z,18.14
2022-10-29T10:57:30.957Z,18.16
2022-10-29T10:59:59.832Z,18.19
2022-10-29T11:02:54.562Z,18.21
2022-10-29T11:05:23.268Z,18.31
2022-10-29T11:08:10.312Z,18.46
2022-10-29T11:10:48.111Z,18.54
2022-10-29T11:13:20.896Z,18.64
2022-10-29T11:16:04.432Z,18.66
2022-10-29T11:18:36.435Z,18.75
2022-10-29T11:21:11.768Z,18.92
2022-10-29T11:23:53.970Z,19.06
2022-10-29T11:26:30.253Z,19.13
2022-10-29T11:29:15.646Z,19.15
2022-10-29T11:32:00.653Z,19.15
2022-10-29T11:34:45.369Z,19.20
2022-10-29T11:37:27.763Z,19.25
2022-10-29T11:40:02.459Z,19.24
2022-10-29T11:42:29.265Z,19.24
2022-10-29T11:44:58.725Z,19.24
2022-10-29T11:47:58.762Z,19.21
2022-10-29T11:50:39.278Z,19.20
2022-10-29T11:53:24.942Z,19.20
2022-10-29T11:56:08.553Z,19.22
2022-10-29T11:58:40.823Z,19.25
2022-10-29T12:01:34.253Z,19.31
2022-10-29T12:04:27.306Z,19.40
2022-10-29T12:07:11.973Z,19.55
2022-10-29T12:09:53.457Z,19.73
2022-10-29T12:12:44.730Z,19.85
2022-10-29T12:15:26.254Z,19.94
2022-10-29T12:18:26.548Z,20.03
2022-10-29T12:21:11.821Z,20.12
2022-10-29T12:24:04.148Z,20.15
2022-10-29T12:26:44.660Z,20.13
2022-10-29T12:29:15.779Z,20.17
2022-10-29T12:32:07.255Z,20.21
2022-10-29T12:34:50.517Z,20.37
2022-10-29T12:37:44.726Z,20.53
2022-10-29T12:40:20.330Z,20.64
2022-10-29T12:42:49.177Z,20.67
2022-10-29T12:46:14.300Z,20.62
2022-10-29T12:48:49.727Z,20.54
2022-10-29T12:51:23.986Z,20.49
2022-10-29T12:54:15.149Z,20.45
2022-10-29T12:56:45.045Z,20.37
2022-10-29T12:59:23.335Z,20.28
2022-10-29T13:05:11.343Z,20.11
2022-10-29T13:07:59.277Z,20.04
2022-10-29T13:10:47.725Z,19.96
2022-10-29T13:13:13.957Z,19.90
2022-10-29T13:15:44.056Z,19.84
2022-10-29T13:18:26.396Z,19.80
2022-10-29T13:20:54.382Z,19.84
2022-10-29T13:23:23.834Z,19.88
2022-10-29T13:25:51.566Z,19.92
2022-10-29T13:28:17.799Z,19.96
2022-10-29T13:30:46.632Z,19.98
2022-10-29T13:33:28.106Z,19.99
2022-10-29T13:36:16.840Z,19.96
2022-10-29T13:39:06.189Z,20.04
2022-10-29T13:41:44.593Z,20.15
2022-10-29T13:44:13.397Z,20.21
2022-10-29T13:47:04.116Z,20.23
2022-10-29T13:49:37.487Z,20.22
2022-10-29T13:52:15.982Z,20.18
2022-10-29T13:54:56.583Z,20.14
2022-10-29T13:57:34.067Z,20.16
2022-10-29T14:00:12.531Z,20.16
2022-10-29T14:02:41.861Z,20.15
2022-10-29T14:05:12.570Z,20.16
2022-10-29T14:07:51.826Z,20.15
2022-10-29T14:10:24.259Z,20.14
2022-10-29T14:12:57.355Z,20.13
2022-10-29T14:15:24.163Z,20.10
2022-10-29T14:17:50.657Z,20.08
2022-10-29T14:20:26.307Z,20.03
2022-10-29T14:22:53.107Z,20.00
2022-10-29T14:25:35.594Z,19.95
2022-10-29T14:28:18.883Z,19.90
2022-10-29T14:30:48.055Z,19.87
2022-10-29T14:33:25.986Z,19.85
2022-10-29T14:36:15.697Z,19.80
2022-10-29T14:38:56.963Z,19.77
2022-10-29T14:41:25.594Z,19.76
2022-10-29T14:44:05.196Z,19.75
2022-10-29T14:46:34.755Z,19.73
2022-10-29T14:49:14.506Z,19.71
2022-10-29T14:51:49.575Z,19.69
2022-10-29T14:54:21.626Z,19.64
2022-10-29T14:56:52.774Z,19.58
2022-10-29T14:59:26.425Z,19.55
2022-10-29T15:02:05.737Z,19.51
2022-10-29T15:05:07.203Z,19.45
2022-10-29T15:07:35.843Z,19.39
2022-10-29T15:10:08.102Z,19.31
2022-10-29T15:12:36.910Z,19.24
2022-10-29T15:15:15.297Z,19.17
2022-10-29T15:17:50.661Z,19.09
2022-10-29T15:20:32.091Z,19.01
2022-10-29T15:22:59.341Z,18.96
2022-10-29T15:25:37.603Z,18.94
2022-10-29T15:28:08.794Z,18.92
2022-10-29T15:30:37.629Z,18.91
2022-10-29T15:33:08.061Z,18.87
2022-10-29T15:35:49.055Z,18.84
2022-10-29T15:38:52.052Z,18.81
2022-10-29T15:41:39.017Z,18.80
2022-10-29T15:44:40.190Z,18.77
2022-10-29T15:47:28.254Z,18.73
2022-10-29T15:49:55.120Z,18.68
2022-10-29T15:52:26.812Z,18.64
2022-10-29T15:54:53.164Z,18.61
2022-10-29T15:57:19.470Z,18.61
2022-10-29T15:59:45.975Z,18.60
2022-10-29T16:02:14.223Z,18.56
2022-10-29T16:04:40.738Z,18.50
2022-10-29T16:07:11.540Z,18.48
2022-10-29T16:09:39.219Z,18.46
2022-10-29T16:12:05.698Z,18.43
2022-10-29T16:14:31.991Z,18.40
2022-10-29T16:16:58.304Z,18.39
2022-10-29T16:19:24.641Z,18.35
2022-10-29T16:21:50.965Z,18.30
2022-10-29T16:24:17.438Z,18.27
2022-10-29T16:26:43.839Z,18.19
2022-10-29T16:29:10.606Z,18.15
2022-10-29T16:31:37.050Z,18.13
2022-10-29T16:34:05.006Z,18.12
2022-10-29T16:36:31.306Z,18.09
2022-10-29T16:38:57.630Z,18.05
2022-10-29T16:41:23.969Z,18.03
2022-10-29T16:43:50.315Z,18.01
2022-10-29T16:46:17.170Z,17.98
2022-10-29T16:48:43.596Z,17.96
2022-10-29T16:51:09.924Z,17.90
2022-10-29T16:53:36.527Z,17.84
2022-10-29T16:56:03.400Z,17.79
2022-10-29T16:58:29.731Z,17.73
2022-10-29T17:01:07.746Z,17.65
2022-10-29T17:03:35.195Z,17.62
2022-10-29T17:06:07.440Z,17.57
2022-10-29T17:08:34.858Z,17.54
2022-10-29T17:11:02.402Z,17.52
2022-10-29T17:13:28.787Z,17.50
2022-10-29T17:15:55.408Z,17.51
2022-10-29T17:18:23.001Z,17.54
2022-10-29T17:20:59.978Z,17.52
2022-10-29T17:23:26.844Z,17.49
2022-10-29T17:25:54.669Z,17.52
2022-10-29T17:28:22.315Z,17.53
2022-10-29T17:30:49.086Z,17.55
2022-10-29T17:33:16.222Z,17.52
2022-10-29T17:35:43.381Z,17.50
2022-10-29T17:38:10.618Z,17.48
2022-10-29T17:40:37.025Z,17.45
2022-10-29T17:43:03.430Z,17.43
2022-10-29T17:45:29.795Z,17.44
2022-10-29T17:47:57.784Z,17.43
2022-10-29T17:50:25.734Z,17.37
2022-10-29T17:52:53.257Z,17.32
2022-10-29T17:55:19.743Z,17.28
2022-10-29T17:57:46.121Z,17.23
2022-10-29T18:00:12.937Z,17.19
2022-10-29T18:02:39.278Z,17.15
2022-10-29T18:05:05.802Z,17.03
2022-10-29T18:07:32.128Z,16.96
2022-10-29T18:09:58.441Z,16.86
2022-10-29T18:12:24.837Z,16.76
2022-10-29T18:14:51.129Z,16.66
2022-10-29T18:17:17.495Z,16.59
2022-10-29T18:19:43.935Z,16.50
2022-10-29T18:22:10.304Z,16.44
2022-10-29T18:24:36.611Z,16.43
2022-10-29T18:27:02.965Z,16.40
2022-10-29T18:29:29.277Z,16.37
2022-10-29T18:31:55.591Z,16.35
2022-10-29T18:34:22.030Z,16.31
2022-10-29T18:36:48.370Z,16.29
2022-10-29T18:39:14.663Z,16.21
2022-10-29T18:41:41.065Z,16.13
2022-10-29T18:44:08.450Z,16.09
2022-10-29T18:46:34.750Z,16.09
2022-10-29T18:49:01.091Z,16.06
2022-10-29T18:51:30.059Z,16.04
2022-10-29T18:54:00.316Z,16.03
2022-10-29T18:56:28.219Z,16.02
2022-10-29T18:58:55.569Z,16.00
2022-10-29T19:01:27.895Z,15.97
2022-10-29T19:03:56.842Z,15.95
2022-10-29T19:06:25.307Z,15.92
2022-10-29T19:08:51.687Z,15.91
2022-10-29T19:11:23.567Z,15.88
2022-10-29T19:13:54.707Z,15.85
2022-10-29T19:16:21.829Z,15.82
2022-10-29T19:18:48.537Z,15.83
2022-10-29T19:21:16.917Z,15.82
2022-10-29T19:23:43.963Z,15.79
2022-10-29T19:26:18.213Z,15.79
2022-10-29T19:28:46.352Z,15.78
2022-10-29T19:31:17.736Z,15.74
2022-10-29T19:33:51.581Z,15.71
2022-10-29T19:36:18.718Z,15.71
2022-10-29T19:38:45.200Z,15.72
2022-10-29T19:41:12.296Z,15.70
2022-10-29T19:43:39.278Z,15.67
2022-10-29T19:46:07.859Z,15.66
2022-10-29T19:48:34.535Z,15.63
2022-10-29T19:51:00.857Z,15.57
2022-10-29T19:53:27.450Z,15.59
2022-10-29T19:55:54.322Z,15.58
2022-10-29T19:58:23.256Z,15.55
2022-10-29T20:00:49.752Z,15.55
2022-10-29T20:03:17.282Z,15.53
2022-10-29T20:05:44.367Z,15.54
2022-10-29T20:08:15.677Z,15.54
2022-10-29T20:10:43.227Z,15.54
2022-10-29T20:13:09.549Z,15.58
2022-10-29T20:15:38.461Z,15.63
2022-10-29T20:18:04.995Z,15.66
2022-10-29T20:20:31.300Z,15.69
2022-10-29T20:22:59.519Z,15.70
2022-10-29T20:25:26.424Z,15.72
2022-10-29T20:27:52.759Z,15.73
2022-10-29T20:30:19.058Z,15.74
2022-10-29T20:32:45.401Z,15.77
2022-10-29T20:35:11.710Z,15.79
2022-10-29T20:37:38.013Z,15.81
2022-10-29T20:40:05.389Z,15.82
2022-10-29T20:42:31.743Z,15.83
2022-10-29T20:44:58.030Z,15.83
2022-10-29T20:47:24.371Z,15.82
2022-10-29T20:49:50.740Z,15.83
2022-10-29T20:52:17.059Z,15.82
2022-10-29T20:54:43.432Z,15.82
2022-10-29T20:57:09.819Z,15.82
2022-10-29T20:59:36.117Z,15.83
2022-10-29T21:02:02.845Z,15.84
2022-10-29T21:04:29.260Z,15.83
2022-10-29T21:06:55.574Z,15.80
2022-10-29T21:09:22.749Z,15.78
2022-10-29T21:11:49.070Z,15.76
2022-10-29T21:14:15.402Z,15.71
2022-10-29T21:16:41.749Z,15.67
2022-10-29T21:19:08.194Z,15.61
2022-10-29T21:21:34.551Z,15.55
2022-10-29T21:24:00.928Z,15.50
2022-10-29T21:26:28.220Z,15.43
2022-10-29T21:28:55.116Z,15.37
2022-10-29T21:31:22.938Z,15.34
2022-10-29T21:33:54.110Z,15.29
2022-10-29T21:36:21.166Z,15.23
2022-10-29T21:38:48.307Z,15.20
2022-10-29T21:41:15.465Z,15.20
2022-10-29T21:43:41.762Z,15.16
2022-10-29T21:46:08.163Z,15.12
2022-10-29T21:48:34.654Z,15.04
2022-10-29T21:51:05.769Z,15.03
2022-10-29T21:53:32.607Z,15.00
2022-10-29T21:56:01.079Z,14.91
2022-10-29T21:58:27.909Z,14.86
2022-10-29T22:01:16.782Z,14.80
2022-10-29T22:03:44.918Z,14.74
2022-10-29T22:06:22.317Z,14.71
2022-10-29T22:08:56.472Z,14.67
2022-10-29T22:11:23.563Z,14.64
2022-10-29T22:13:51.109Z,14.55
2022-10-29T22:16:17.698Z,14.50
2022-10-29T22:18:44.374Z,14.44
2022-10-29T22:21:21.546Z,14.40
2022-10-29T22:23:58.049Z,14.33
2022-10-29T22:26:27.382Z,14.34
2022-10-29T22:28:53.721Z,14.33
2022-10-29T22:31:21.468Z,14.32
2022-10-29T22:33:48.241Z,14.29
2022-10-29T22:36:22.931Z,14.25
2022-10-29T22:38:54.091Z,14.24
2022-10-29T22:41:20.409Z,14.21
2022-10-29T22:43:46.819Z,14.22
2022-10-29T22:46:15.275Z,14.19
2022-10-29T22:48:43.486Z,14.15
2022-10-29T22:51:16.605Z,14.10
2022-10-29T22:53:42.987Z,14.06
2022-10-29T22:56:23.541Z,14.01
2022-10-29T22:58:50.154Z,13.98
2022-10-29T23:01:19.054Z,13.94
2022-10-29T23:03:46.148Z,13.91
2022-10-29T23:06:15.821Z,13.90
2022-10-29T23:08:44.275Z,13.91
2022-10-29T23:11:21.408Z,13.92
2022-10-29T23:13:59.806Z,13.88
2022-10-29T23:16:29.278Z,13.86
2022-10-29T23:19:02.033Z,13.82
2022-10-29T23:21:28.936Z,13.83
2022-10-29T23:23:55.787Z,13.88
2022-10-29T23:26:23.797Z,13.86
2022-10-29T23:28:50.227Z,13.85
2022-10-29T23:31:23.750Z,13.87
2022-10-29T23:33:52.958Z,13.81
2022-10-29T23:36:21.654Z,13.74
2022-10-29T23:38:48.724Z,13.69
2022-10-29T23:41:15.285Z,13.66
2022-10-29T23:43:41.612Z,13.65
2022-10-29T23:46:08.162Z,13.60
2022-10-29T23:48:34.530Z,13.56
2022-10-29T23:51:00.882Z,13.57
2022-10-29T23:53:27.213Z,13.57
2022-10-29T23:55:53.583Z,13.56
2022-10-29T23:58:19.998Z,13.47
